Time;durP1;ratioP1;P1;durP2;ratioP2;P2;SDS_P1;SDS_P2;PMS_P1;PMS_P2;Temp;Humidity;BMP_temperature;BMP_pressure;BME280_temperature;BME280_humidity;BME280_pressure;Samples;Min_cycle;Max_cycle;Signal;HPM_P1;HPM_P2
2022/01/28 00:06:05;;;;;;;4.40;3.40;;;;;;;;;;4748363;30;20047;-86
2022/01/28 00:09:13;;;;;;;2.85;2.65;;;;;;;;;;4749287;29;20056;-89
2022/01/28 00:12:09;;;;;;;4.65;4.20;;;;;;;;;;4747694;30;20059;-88
2022/01/28 00:15:05;;;;;;;3.90;2.25;;;;;;;;;;4743560;29;20054;-81
2022/01/28 00:38:11;;;;;;;4.22;3.78;;;;;;;;;;4784334;29;20051;-88
2022/01/28 00:41:41;;;;;;;5.43;4.88;;;;;;;;;;4800270;29;20042;-89
2022/01/28 00:44:12;;;;;;;5.68;4.10;;;;;;;;;;4786281;24;20054;-86
2022/01/28 00:46:41;;;;;;;4.97;4.57;;;;;;;;;;4764444;29;20139;-86
2022/01/28 00:49:16;;;;;;;5.78;4.72;;;;;;;;;;4739908;29;20051;-86
2022/01/28 00:51:49;;;;;;;8.02;5.57;;;;;;;;;;4741455;30;20063;-89
2022/01/28 00:54:38;;;;;;;4.60;4.10;;;;;;;;;;4710608;30;20555;-87
2022/01/28 00:57:38;;;;;;;7.35;5.22;;;;;;;;;;4738269;30;20498;-90
2022/01/28 01:00:46;;;;;;;9.27;5.35;;;;;;;;;;4724442;30;20275;-89
2022/01/28 01:04:20;;;;;;;;;;;;;;;;;;;;;
2022/01/28 01:07:12;;;;;;;7.20;6.53;;;;;;;;;;4728214;30;20056;-89
2022/01/28 01:10:36;;;;;;;6.30;5.45;;;;;;;;;;4670406;30;20148;-91
2022/01/28 01:13:37;;;;;;;5.07;4.55;;;;;;;;;;4678365;30;20056;-89
2022/01/28 01:16:08;;;;;;;5.25;4.32;;;;;;;;;;4701193;30;20552;-89
2022/01/28 01:18:52;;;;;;;8.30;4.45;;;;;;;;;;4679895;30;20061;-89
2022/01/28 01:29:12;;;;;;;5.55;4.68;;;;;;;;;;4761817;29;20429;-87
2022/01/28 01:36:10;;;;;;;7.22;5.57;;;;;;;;;;4755987;30;20384;-90
2022/01/28 01:53:11;;;;;;;4.18;3.58;;;;;;;;;;4795320;29;20051;-92
2022/01/28 01:59:11;;;;;;;3.30;3.10;;;;;;;;;;4804934;29;20358;-89
2022/01/28 02:02:10;;;;;;;5.05;4.50;;;;;;;;;;4767177;30;20051;-91
2022/01/28 02:04:46;;;;;;;6.65;6.05;;;;;;;;;;4797146;29;20048;-89
2022/01/28 02:07:51;;;;;;;5.47;4.57;;;;;;;;;;4786440;29;20043;-88
2022/01/28 02:14:14;;;;;;;7.15;5.25;;;;;;;;;;4779001;29;20050;-91
2022/01/28 02:17:47;;;;;;;8.25;6.60;;;;;;;;;;4792315;29;20051;-91
2022/01/28 02:20:42;;;;;;;5.45;4.60;;;;;;;;;;4812513;29;20054;-90
2022/01/28 02:23:20;;;;;;;7.18;5.35;;;;;;;;;;4807879;29;20050;-90
2022/01/28 02:25:49;;;;;;;6.63;5.55;;;;;;;;;;4774836;29;20054;-89
2022/01/28 02:28:21;;;;;;;7.40;5.50;;;;;;;;;;4793814;29;20545;-89
2022/01/28 02:31:22;;;;;;;;;;;;;;;;;;;;;
2022/01/28 02:35:01;;;;;;;5.28;4.55;;;;;;;;;;4817477;29;20504;-90
2022/01/28 02:37:29;;;;;;;5.80;4.95;;;;;;;;;;4769386;29;20062;-92
2022/01/28 02:47:27;;;;;;;;;;;;;;;;;;;;;
2022/01/28 02:50:09;;;;;;;5.30;4.53;;;;;;;;;;4778725;29;20378;-92
2022/01/28 02:52:51;;;;;;;5.80;5.30;;;;;;;;;;4801047;29;20042;-91
2022/01/28 02:55:38;;;;;;;6.20;5.38;;;;;;;;;;4779852;29;20154;-90
2022/01/28 02:58:28;;;;;;;7.65;4.75;;;;;;;;;;4809990;29;20087;-89
2022/01/28 03:01:13;;;;;;;8.32;5.88;;;;;;;;;;4799365;29;20046;-88
2022/01/28 03:03:42;;;;;;;8.20;7.40;;;;;;;;;;4809700;29;20061;-92
2022/01/28 03:06:24;;;;;;;7.78;7.00;;;;;;;;;;4791244;29;20399;-92
2022/01/28 03:09:18;;;;;;;8.10;6.07;;;;;;;;;;4799545;29;20055;-92
2022/01/28 03:12:12;;;;;;;7.43;6.45;;;;;;;;;;4801243;29;20042;-91
2022/01/28 03:15:20;;;;;;;5.70;4.95;;;;;;;;;;4798644;29;20081;-89
2022/01/28 03:18:08;;;;;;;5.07;4.63;;;;;;;;;;4795150;29;20050;-90
2022/01/28 03:24:06;;;;;;;13.82;6.20;;;;;;;;;;4819118;29;20042;-91
2022/01/28 03:26:39;;;;;;;6.28;4.05;;;;;;;;;;4798385;29;20054;-88
2022/01/28 03:29:08;;;;;;;6.30;5.70;;;;;;;;;;4816306;29;20496;-89
2022/01/28 03:31:39;;;;;;;7.72;5.93;;;;;;;;;;4808348;29;20061;-90
2022/01/28 03:34:07;;;;;;;4.68;4.05;;;;;;;;;;4780725;29;20050;-90
2022/01/28 03:36:47;;;;;;;4.38;4.05;;;;;;;;;;4796110;29;20050;-90
2022/01/28 03:39:17;;;;;;;5.07;4.18;;;;;;;;;;4811705;29;20062;-88
2022/01/28 03:41:48;;;;;;;6.15;5.25;;;;;;;;;;4828144;29;20042;-90
2022/01/28 03:44:16;;;;;;;5.32;4.53;;;;;;;;;;4816169;29;20047;-88
2022/01/28 03:46:48;;;;;;;5.32;4.20;;;;;;;;;;4787401;29;20514;-91
2022/01/28 03:49:26;;;;;;;5.43;4.78;;;;;;;;;;4795526;29;20055;-91
2022/01/28 03:52:02;;;;;;;4.05;3.67;;;;;;;;;;4767374;29;20100;-89
2022/01/28 03:54:30;;;;;;;5.28;4.70;;;;;;;;;;4778327;29;20062;-90
2022/01/28 03:56:58;;;;;;;6.03;3.90;;;;;;;;;;4777932;29;20507;-88
2022/01/28 03:59:27;;;;;;;7.70;5.22;;;;;;;;;;4808250;29;20062;-91
2022/01/28 04:01:55;;;;;;;3.17;2.83;;;;;;;;;;4825337;29;20055;-88
2022/01/28 04:12:41;;;;;;;6.38;4.90;;;;;;;;;;4787028;30;20051;-88
2022/01/28 04:17:46;;;;;;;5.72;3.53;;;;;;;;;;4806322;29;20059;-90
2022/01/28 04:20:14;;;;;;;7.13;4.00;;;;;;;;;;4774471;30;20058;-91
2022/01/28 04:22:42;;;;;;;5.53;4.85;;;;;;;;;;4804270;29;20066;-87
2022/01/28 04:25:11;;;;;;;7.78;5.05;;;;;;;;;;4800275;29;20071;-90
2022/01/28 04:27:39;;;;;;;6.97;4.40;;;;;;;;;;4794737;29;20409;-87
2022/01/28 04:30:07;;;;;;;4.70;4.07;;;;;;;;;;4807860;29;20051;-89
2022/01/28 04:32:37;;;;;;;7.28;5.50;;;;;;;;;;4779182;29;20050;-87
2022/01/28 04:35:06;;;;;;;5.43;4.18;;;;;;;;;;4801975;29;20055;-89
2022/01/28 04:40:33;;;;;;;6.15;4.38;;;;;;;;;;4801338;29;20057;-88
2022/01/28 04:43:18;;;;;;;5.57;3.70;;;;;;;;;;4785020;29;20065;-88
2022/01/28 04:45:55;;;;;;;7.45;4.82;;;;;;;;;;4783879;29;20062;-90
2022/01/28 04:54:01;;;;;;;4.10;3.85;;;;;;;;;;4814649;29;20046;-87
2022/01/28 04:59:32;;;;;;;5.53;4.97;;;;;;;;;;4822130;29;20050;-89
2022/01/28 05:02:41;;;;;;;8.27;7.45;;;;;;;;;;4794072;29;20051;-89
2022/01/28 05:05:46;;;;;;;5.03;3.60;;;;;;;;;;4828397;29;20045;-90
2022/01/28 05:16:26;;;;;;;3.70;3.40;;;;;;;;;;4815685;29;20505;-87
2022/01/28 05:27:05;;;;;;;4.32;3.78;;;;;;;;;;4825865;29;20058;-88
2022/01/28 05:29:34;;;;;;;5.05;4.28;;;;;;;;;;4810631;29;20045;-89
2022/01/28 05:32:05;;;;;;;5.88;4.82;;;;;;;;;;4810212;29;20050;-89
2022/01/28 05:34:33;;;;;;;6.25;3.72;;;;;;;;;;4816290;29;20050;-91
2022/01/28 05:37:03;;;;;;;5.63;4.72;;;;;;;;;;4809185;29;20043;-88
2022/01/28 05:39:33;;;;;;;8.13;3.92;;;;;;;;;;4806785;29;20058;-87
2022/01/28 05:42:01;;;;;;;5.57;5.00;;;;;;;;;;4815711;29;20399;-86
2022/01/28 05:44:40;;;;;;;7.30;5.03;;;;;;;;;;4817077;29;20042;-90
2022/01/28 05:47:13;;;;;;;6.40;5.30;;;;;;;;;;4830057;29;20085;-89
2022/01/28 05:49:42;;;;;;;4.57;4.18;;;;;;;;;;4815834;29;20053;-88
2022/01/28 05:52:24;;;;;;;5.55;4.97;;;;;;;;;;4798297;29;20050;-89
2022/01/28 05:54:52;;;;;;;9.02;6.63;;;;;;;;;;4803612;29;20058;-87
2022/01/28 05:57:20;;;;;;;4.07;3.75;;;;;;;;;;4817364;29;20053;-90
2022/01/28 05:59:49;;;;;;;7.22;4.25;;;;;;;;;;4783920;29;20046;-89
2022/01/28 06:02:18;;;;;;;4.53;4.13;;;;;;;;;;4810127;29;20047;-89
2022/01/28 06:04:50;;;;;;;6.93;5.22;;;;;;;;;;4825044;29;20050;-87
2022/01/28 06:07:21;;;;;;;6.53;5.03;;;;;;;;;;4797646;29;20065;-86
2022/01/28 06:09:49;;;;;;;3.90;3.47;;;;;;;;;;4810441;29;20058;-86
2022/01/28 06:12:17;;;;;;;6.38;5.43;;;;;;;;;;4795881;29;20047;-86
2022/01/28 06:14:52;;;;;;;4.32;4.03;;;;;;;;;;4798003;29;20046;-86
2022/01/28 06:17:20;;;;;;;6.88;5.78;;;;;;;;;;4824807;29;20054;-86
2022/01/28 06:19:52;;;;;;;8.75;5.85;;;;;;;;;;4833421;24;20048;-87
2022/01/28 06:22:25;;;;;;;;;;;;;;;;;;4846830;29;20050;-87
2022/01/28 06:25:01;;;;;;;5.47;3.63;;;;;;;;;;4802065;29;19924;-87
2022/01/28 06:27:38;;;;;;;5.05;3.47;;;;;;;;;;4830055;29;20480;-86
2022/01/28 06:30:09;;;;;;;4.47;3.50;;;;;;;;;;4823824;29;20053;-86
2022/01/28 06:32:41;;;;;;;6.35;5.43;;;;;;;;;;4844119;29;20693;-87
2022/01/28 06:35:13;;;;;;;5.97;4.07;;;;;;;;;;4830973;29;20046;-86
2022/01/28 06:37:42;;;;;;;6.50;5.47;;;;;;;;;;4844513;29;20060;-83
2022/01/28 06:40:15;;;;;;;4.85;4.40;;;;;;;;;;4827946;29;20049;-86
2022/01/28 06:42:43;;;;;;;9.43;6.47;;;;;;;;;;4792451;29;20062;-89
2022/01/28 06:45:12;;;;;;;17.15;5.90;;;;;;;;;;4812375;29;20045;-84
2022/01/28 06:47:40;;;;;;;7.55;4.50;;;;;;;;;;4798129;29;20062;-83
2022/01/28 06:50:10;;;;;;;13.73;8.77;;;;;;;;;;4829438;29;20062;-84
2022/01/28 06:52:39;;;;;;;7.18;4.75;;;;;;;;;;4793061;29;20054;-86
2022/01/28 06:55:07;;;;;;;5.88;4.53;;;;;;;;;;4827838;29;20061;-84
2022/01/28 06:57:35;;;;;;;7.80;6.35;;;;;;;;;;4809292;29;20046;-84
2022/01/28 07:00:08;;;;;;;7.20;6.60;;;;;;;;;;4797191;29;20061;-85
2022/01/28 07:02:36;;;;;;;7.75;5.68;;;;;;;;;;4842264;29;20054;-85
2022/01/28 07:05:05;;;;;;;7.75;5.93;;;;;;;;;;4845551;29;20046;-89
2022/01/28 07:07:34;;;;;;;6.50;5.63;;;;;;;;;;4795910;29;20054;-84
2022/01/28 07:10:02;;;;;;;9.00;5.07;;;;;;;;;;4798420;29;20081;-83
2022/01/28 07:12:30;;;;;;;11.32;5.97;;;;;;;;;;4803907;29;20046;-84
2022/01/28 07:14:58;;;;;;;7.03;6.22;;;;;;;;;;4839626;29;20057;-84
2022/01/28 07:17:26;;;;;;;7.88;6.15;;;;;;;;;;4827064;29;20061;-85
2022/01/28 07:19:54;;;;;;;4.80;4.43;;;;;;;;;;4824532;29;20064;-84
2022/01/28 07:22:22;;;;;;;8.20;6.18;;;;;;;;;;4799885;29;20065;-86
2022/01/28 07:24:50;;;;;;;8.13;5.75;;;;;;;;;;4847535;29;20057;-85
2022/01/28 07:27:20;;;;;;;11.90;4.97;;;;;;;;;;4795600;29;20473;-84
2022/01/28 07:29:50;;;;;;;10.63;5.28;;;;;;;;;;4813118;29;20054;-85
2022/01/28 07:32:18;;;;;;;8.57;4.25;;;;;;;;;;4810212;29;20053;-85
2022/01/28 07:34:47;;;;;;;7.07;5.80;;;;;;;;;;4832248;29;20053;-85
2022/01/28 07:37:15;;;;;;;4.20;3.65;;;;;;;;;;4809192;29;20061;-86
2022/01/28 07:39:43;;;;;;;8.18;4.90;;;;;;;;;;4796114;29;20061;-84
2022/01/28 07:42:11;;;;;;;7.72;4.90;;;;;;;;;;4814764;29;20049;-87
2022/01/28 07:44:39;;;;;;;6.38;5.28;;;;;;;;;;4810718;29;20046;-85
2022/01/28 07:47:07;;;;;;;6.32;5.72;;;;;;;;;;4799010;29;20057;-84
2022/01/28 07:49:35;;;;;;;5.70;4.75;;;;;;;;;;4827410;29;20050;-85
2022/01/28 07:52:03;;;;;;;5.13;4.72;;;;;;;;;;4843884;29;20052;-85
2022/01/28 07:54:31;;;;;;;10.45;6.85;;;;;;;;;;4852918;29;20045;-85
2022/01/28 07:57:01;;;;;;;5.70;5.15;;;;;;;;;;4851177;29;20054;-86
2022/01/28 07:59:29;;;;;;;5.55;4.75;;;;;;;;;;4806173;29;20053;-87
2022/01/28 08:01:57;;;;;;;4.60;4.20;;;;;;;;;;4822811;29;20057;-89
2022/01/28 08:04:27;;;;;;;6.53;5.93;;;;;;;;;;4830318;29;20049;-87
2022/01/28 08:06:55;;;;;;;9.95;5.30;;;;;;;;;;4818382;29;20057;-86
2022/01/28 08:09:24;;;;;;;5.15;3.78;;;;;;;;;;4830592;29;20049;-86
2022/01/28 08:11:52;;;;;;;9.60;6.78;;;;;;;;;;4816814;29;20049;-85
2022/01/28 08:14:20;;;;;;;5.60;5.20;;;;;;;;;;4794929;29;20603;-83
2022/01/28 08:16:49;;;;;;;7.32;4.72;;;;;;;;;;4843005;29;20485;-84
2022/01/28 08:19:19;;;;;;;6.90;3.63;;;;;;;;;;4821086;29;20049;-85
2022/01/28 08:21:47;;;;;;;7.50;5.68;;;;;;;;;;4830368;29;20065;-82
2022/01/28 08:24:20;;;;;;;7.05;6.32;;;;;;;;;;4827379;29;20049;-81
2022/01/28 08:26:48;;;;;;;5.03;4.63;;;;;;;;;;4848316;29;20080;-82
2022/01/28 08:29:16;;;;;;;5.78;4.95;;;;;;;;;;4849197;29;20050;-81
2022/01/28 08:31:44;;;;;;;6.90;4.03;;;;;;;;;;4831453;29;20050;-81
2022/01/28 08:34:13;;;;;;;8.35;6.82;;;;;;;;;;4847702;29;20473;-82
2022/01/28 08:36:41;;;;;;;5.93;5.10;;;;;;;;;;4848196;29;20420;-82
2022/01/28 08:39:10;;;;;;;10.63;7.40;;;;;;;;;;4851044;29;20057;-81
2022/01/28 08:41:40;;;;;;;9.38;8.48;;;;;;;;;;4814956;29;20052;-84
2022/01/28 08:44:09;;;;;;;10.55;6.60;;;;;;;;;;4830322;29;20057;-82
2022/01/28 08:46:38;;;;;;;11.27;6.28;;;;;;;;;;4799576;29;20056;-84
2022/01/28 08:49:06;;;;;;;7.95;6.03;;;;;;;;;;4815234;29;20049;-87
2022/01/28 08:51:38;;;;;;;8.45;6.70;;;;;;;;;;4801114;29;20053;-83
2022/01/28 08:54:06;;;;;;;8.68;7.78;;;;;;;;;;4812721;29;20073;-83
2022/01/28 08:56:34;;;;;;;16.13;5.90;;;;;;;;;;4849872;29;20049;-81
2022/01/28 08:59:20;;;;;;;6.13;5.53;;;;;;;;;;4825167;29;20081;-80
2022/01/28 09:01:48;;;;;;;5.85;4.50;;;;;;;;;;4815410;29;20062;-81
2022/01/28 09:04:16;;;;;;;11.95;5.78;;;;;;;;;;4798272;29;20053;-81
2022/01/28 09:06:45;;;;;;;8.55;7.47;;;;;;;;;;4828586;29;20468;-81
2022/01/28 09:09:14;;;;;;;6.45;5.80;;;;;;;;;;4827606;29;20056;-83
2022/01/28 09:14:21;;;;;;;7.22;6.18;;;;;;;;;;4842123;29;20495;-81
2022/01/28 09:16:49;;;;;;;7.00;4.47;;;;;;;;;;4829754;29;20058;-82
2022/01/28 09:19:20;;;;;;;6.07;3.92;;;;;;;;;;4828761;29;20861;-85
2022/01/28 09:22:07;;;;;;;6.68;4.95;;;;;;;;;;4816762;29;20427;-85
2022/01/28 09:24:45;;;;;;;8.60;7.30;;;;;;;;;;4830397;29;20049;-83
2022/01/28 09:27:21;;;;;;;7.15;4.65;;;;;;;;;;4830206;29;20061;-87
2022/01/28 09:29:50;;;;;;;5.70;4.18;;;;;;;;;;4793141;29;20046;-84
2022/01/28 09:32:21;;;;;;;8.93;3.95;;;;;;;;;;4824477;29;20050;-83
2022/01/28 09:34:50;;;;;;;9.38;5.22;;;;;;;;;;4844723;29;20049;-83
2022/01/28 09:37:18;;;;;;;4.45;3.10;;;;;;;;;;4815420;29;20045;-83
2022/01/28 09:39:52;;;;;;;8.52;3.85;;;;;;;;;;4788690;29;20053;-84
2022/01/28 09:42:36;;;;;;;6.80;4.85;;;;;;;;;;4810399;29;20501;-84
2022/01/28 09:45:09;;;;;;;6.38;4.13;;;;;;;;;;4779111;29;20061;-84
2022/01/28 09:47:37;;;;;;;;;;;;;;;;;;4816436;29;20049;-83
2022/01/28 09:50:06;;;;;;;7.53;6.15;;;;;;;;;;4789588;29;19932;-82
2022/01/28 09:52:41;;;;;;;4.47;4.07;;;;;;;;;;4817088;29;20148;-83
2022/01/28 09:55:13;;;;;;;14.52;4.03;;;;;;;;;;4803807;29;20069;-84
2022/01/28 09:58:40;;;;;;;3.92;3.58;;;;;;;;;;4773381;29;20392;-84
2022/01/28 10:01:17;;;;;;;5.55;4.38;;;;;;;;;;4796868;29;20385;-83
2022/01/28 10:30:41;;;;;;;4.57;3.88;;;;;;;;;;4713435;30;20060;-85
2022/01/28 10:33:44;;;;;;;9.02;4.93;;;;;;;;;;4675542;30;20066;-84
2022/01/28 10:36:25;;;;;;;5.20;4.70;;;;;;;;;;4644772;30;20063;-84
2022/01/28 10:39:13;;;;;;;10.65;5.43;;;;;;;;;;4672521;30;20065;-86
2022/01/28 10:42:27;;;;;;;7.57;4.03;;;;;;;;;;4680428;30;20068;-86
2022/01/28 10:45:19;;;;;;;4.20;3.85;;;;;;;;;;4737572;30;20052;-84
2022/01/28 10:48:03;;;;;;;2.90;2.70;;;;;;;;;;4738065;30;20052;-84
2022/01/28 10:50:38;;;;;;;5.43;3.97;;;;;;;;;;4739262;30;20062;-84
2022/01/28 10:53:21;;;;;;;3.70;3.40;;;;;;;;;;4737215;30;20056;-86
2022/01/28 10:55:53;;;;;;;6.00;3.15;;;;;;;;;;4735038;30;20060;-85
2022/01/28 10:58:37;;;;;;;7.25;4.63;;;;;;;;;;4774564;29;20061;-84
2022/01/28 11:01:06;;;;;;;6.05;4.18;;;;;;;;;;4786377;29;20055;-84
2022/01/28 11:03:40;;;;;;;5.43;4.00;;;;;;;;;;4786936;29;20378;-83
2022/01/28 11:06:08;;;;;;;6.45;5.47;;;;;;;;;;4788653;29;20055;-83
2022/01/28 11:08:36;;;;;;;6.97;4.65;;;;;;;;;;4774461;29;20058;-83
2022/01/28 11:11:04;;;;;;;8.70;3.40;;;;;;;;;;4775184;29;20055;-84
2022/01/28 11:13:36;;;;;;;5.47;4.53;;;;;;;;;;4786461;29;20817;-85
2022/01/28 11:16:09;;;;;;;3.75;3.45;;;;;;;;;;4768229;29;20053;-86
2022/01/28 11:19:55;;;;;;;12.77;3.38;;;;;;;;;;4783564;29;20059;-85
2022/01/28 11:22:39;;;;;;;5.57;5.03;;;;;;;;;;4800247;29;20062;-83
2022/01/28 11:25:17;;;;;;;11.68;3.30;;;;;;;;;;4807257;29;20061;-84
2022/01/28 11:28:51;;;;;;;8.45;4.35;;;;;;;;;;4785995;29;20050;-85
2022/01/28 11:31:56;;;;;;;4.88;3.60;;;;;;;;;;4787545;29;20051;-84
2022/01/28 11:34:54;;;;;;;;;;;;;;;;;;;;;
2022/01/28 11:38:33;;;;;;;4.60;2.70;;;;;;;;;;4805902;29;20050;-85
2022/01/28 11:42:29;;;;;;;6.13;4.28;;;;;;;;;;4815752;29;20043;-86
2022/01/28 11:46:11;;;;;;;3.75;3.03;;;;;;;;;;4806449;29;20046;-82
2022/01/28 11:48:56;;;;;;;4.57;4.05;;;;;;;;;;4805473;29;20061;-83
2022/01/28 11:51:36;;;;;;;3.25;2.95;;;;;;;;;;4794770;29;20050;-83
2022/01/28 11:54:06;;;;;;;3.50;3.25;;;;;;;;;;4815496;29;20062;-84
2022/01/28 11:56:39;;;;;;;3.08;2.72;;;;;;;;;;4805275;29;20054;-83
2022/01/28 11:59:16;;;;;;;10.23;3.15;;;;;;;;;;4813796;29;20051;-85
2022/01/28 12:01:50;;;;;;;3.67;3.15;;;;;;;;;;4813753;29;20056;-84
2022/01/28 12:04:30;;;;;;;3.35;3.05;;;;;;;;;;4818335;29;20519;-84
2022/01/28 12:07:03;;;;;;;5.40;3.88;;;;;;;;;;4802362;29;20046;-84
2022/01/28 12:09:41;;;;;;;9.95;2.80;;;;;;;;;;4811177;29;20050;-84
2022/01/28 12:16:03;;;;;;;3.97;3.67;;;;;;;;;;4798392;29;20069;-91
2022/01/28 12:18:54;;;;;;;4.18;3.38;;;;;;;;;;4789924;29;20062;-92
2022/01/28 12:21:24;;;;;;;3.00;2.70;;;;;;;;;;4790281;29;20420;-88
2022/01/28 12:23:53;;;;;;;4.82;2.83;;;;;;;;;;4790392;29;20046;-85
2022/01/28 12:26:22;;;;;;;3.90;2.22;;;;;;;;;;4792498;29;20418;-87
2022/01/28 12:29:03;;;;;;;6.47;3.20;;;;;;;;;;4805563;29;20523;-86
2022/01/28 12:31:57;;;;;;;6.20;3.35;;;;;;;;;;4801279;29;20437;-85
2022/01/28 12:34:26;;;;;;;3.63;2.33;;;;;;;;;;4792176;29;20556;-89
2022/01/28 12:36:57;;;;;;;2.97;2.55;;;;;;;;;;4813264;29;20416;-88
2022/01/28 12:39:35;;;;;;;3.38;3.17;;;;;;;;;;4794667;29;20062;-88
2022/01/28 12:44:53;;;;;;;4.40;3.35;;;;;;;;;;4813859;29;20058;-87
2022/01/28 12:47:22;;;;;;;12.00;2.33;;;;;;;;;;4818085;29;20102;-88
2022/01/28 12:50:03;;;;;;;3.25;2.60;;;;;;;;;;4798574;29;20424;-82
2022/01/28 12:52:31;;;;;;;1.45;1.35;;;;;;;;;;4818578;29;20058;-83
2022/01/28 12:55:00;;;;;;;1.38;1.27;;;;;;;;;;4819811;29;20463;-83
2022/01/28 12:57:28;;;;;;;2.58;1.52;;;;;;;;;;4812974;29;20460;-86
2022/01/28 12:59:56;;;;;;;2.38;1.58;;;;;;;;;;4788035;29;20046;-85
2022/01/28 13:02:24;;;;;;;3.00;1.60;;;;;;;;;;4804966;29;20798;-85
2022/01/28 13:09:55;;;;;;;2.88;1.88;;;;;;;;;;4808762;29;20062;-85
2022/01/28 13:12:25;;;;;;;1.67;1.48;;;;;;;;;;4816049;29;20051;-81
2022/01/28 13:14:53;;;;;;;1.73;1.63;;;;;;;;;;4817880;29;20065;-83
2022/01/28 13:17:22;;;;;;;1.95;1.80;;;;;;;;;;4817363;29;20520;-82
2022/01/28 13:19:54;;;;;;;3.25;1.58;;;;;;;;;;4812799;29;20042;-83
2022/01/28 13:22:27;;;;;;;4.03;1.88;;;;;;;;;;4810791;29;20054;-86
2022/01/28 13:24:56;;;;;;;2.28;2.10;;;;;;;;;;4796870;29;20049;-80
2022/01/28 13:28:05;;;;;;;1.33;1.30;;;;;;;;;;4815029;29;20070;-82
2022/01/28 13:30:38;;;;;;;6.93;2.08;;;;;;;;;;4739489;30;20068;-86
2022/01/28 13:33:08;;;;;;;3.42;1.60;;;;;;;;;;4809355;29;20074;-83
2022/01/28 13:35:37;;;;;;;2.10;1.98;;;;;;;;;;4814473;29;20074;-81
2022/01/28 13:38:16;;;;;;;3.72;2.22;;;;;;;;;;4791874;29;20047;-84
2022/01/28 13:40:44;;;;;;;2.05;1.95;;;;;;;;;;4785957;29;20054;-83
2022/01/28 13:43:20;;;;;;;1.52;1.45;;;;;;;;;;4785962;29;20054;-82
2022/01/28 13:45:54;;;;;;;1.15;1.15;;;;;;;;;;4816208;29;20057;-83
2022/01/28 13:48:35;;;;;;;1.35;1.25;;;;;;;;;;4811820;29;20042;-81
2022/01/28 13:51:07;;;;;;;1.88;1.77;;;;;;;;;;4814804;29;20055;-82
2022/01/28 13:56:43;;;;;;;5.38;1.83;;;;;;;;;;4797580;29;20070;-80
2022/01/28 13:59:24;;;;;;;1.58;1.48;;;;;;;;;;4801288;29;20050;-82
2022/01/28 14:01:56;;;;;;;2.92;1.77;;;;;;;;;;4792120;29;20054;-80
2022/01/28 14:04:32;;;;;;;1.80;1.67;;;;;;;;;;4804881;29;20867;-81
2022/01/28 14:07:14;;;;;;;1.60;1.50;;;;;;;;;;4800887;29;20058;-80
2022/01/28 14:09:57;;;;;;;1.67;1.58;;;;;;;;;;4803350;29;20059;-81
2022/01/28 14:12:46;;;;;;;3.38;3.10;;;;;;;;;;4808399;29;20054;-81
2022/01/28 14:15:42;;;;;;;2.22;1.55;;;;;;;;;;4809430;29;20050;-82
2022/01/28 14:18:11;;;;;;;2.00;1.70;;;;;;;;;;4781810;29;20706;-81
2022/01/28 14:20:39;;;;;;;1.45;1.45;;;;;;;;;;4805318;29;20042;-80
2022/01/28 14:23:07;;;;;;;31.33;3.97;;;;;;;;;;4822711;29;20058;-81
2022/01/28 14:25:36;;;;;;;2.33;2.22;;;;;;;;;;4827241;29;20052;-81
2022/01/28 14:30:54;;;;;;;13.25;3.53;;;;;;;;;;4825441;29;20053;-82
2022/01/28 14:33:22;;;;;;;3.78;3.38;;;;;;;;;;4802316;29;20061;-84
2022/01/28 14:36:00;;;;;;;9.30;4.38;;;;;;;;;;4800878;29;20050;-84
2022/01/28 14:38:28;;;;;;;3.10;2.75;;;;;;;;;;4818051;29;20055;-84
2022/01/28 14:40:56;;;;;;;2.88;2.67;;;;;;;;;;4813755;29;20049;-83
2022/01/28 14:43:24;;;;;;;2.88;2.63;;;;;;;;;;4818500;29;20057;-83
2022/01/28 14:45:57;;;;;;;2.13;2.03;;;;;;;;;;4787956;29;20067;-84
2022/01/28 14:48:27;;;;;;;2.13;2.03;;;;;;;;;;4810333;29;20057;-84
2022/01/28 14:50:56;;;;;;;3.35;1.63;;;;;;;;;;4789565;29;20050;-85
2022/01/28 14:53:24;;;;;;;2.67;2.47;;;;;;;;;;4795995;29;20046;-85
2022/01/28 14:55:52;;;;;;;2.15;2.05;;;;;;;;;;4826987;29;20526;-85
2022/01/28 14:58:20;;;;;;;2.47;2.38;;;;;;;;;;4800921;29;20412;-85
2022/01/28 15:00:48;;;;;;;7.15;2.20;;;;;;;;;;4821550;29;20049;-84
2022/01/28 15:03:16;;;;;;;3.15;2.20;;;;;;;;;;4837617;29;20054;-85
2022/01/28 15:05:44;;;;;;;5.78;3.67;;;;;;;;;;4833034;29;20045;-85
2022/01/28 15:08:12;;;;;;;2.58;2.38;;;;;;;;;;4804351;29;20053;-84
2022/01/28 15:10:42;;;;;;;2.35;2.15;;;;;;;;;;4818096;29;20825;-85
2022/01/28 15:13:10;;;;;;;4.97;2.63;;;;;;;;;;4824469;29;20041;-82
2022/01/28 15:15:41;;;;;;;2.35;1.60;;;;;;;;;;4811359;29;22479;-81
2022/01/28 15:18:09;;;;;;;3.67;2.30;;;;;;;;;;4829928;29;20081;-84
2022/01/28 15:20:38;;;;;;;10.10;1.83;;;;;;;;;;4832622;29;20042;-84
2022/01/28 15:23:10;;;;;;;6.05;2.15;;;;;;;;;;4833276;29;20416;-88
2022/01/28 15:25:38;;;;;;;2.78;2.38;;;;;;;;;;4828259;29;20536;-90
2022/01/28 15:28:17;;;;;;;3.58;2.45;;;;;;;;;;4814164;29;20046;-86
2022/01/28 15:36:20;;;;;;;3.15;2.95;;;;;;;;;;4820026;29;20056;-85
2022/01/28 15:38:48;;;;;;;2.10;1.67;;;;;;;;;;4804647;29;20050;-86
2022/01/28 15:41:16;;;;;;;2.22;2.05;;;;;;;;;;4809850;29;20394;-84
2022/01/28 15:43:44;;;;;;;5.05;2.63;;;;;;;;;;4830287;29;20066;-84
2022/01/28 15:46:17;;;;;;;1.83;1.73;;;;;;;;;;4821103;29;20050;-83
2022/01/28 15:48:45;;;;;;;2.80;2.60;;;;;;;;;;4825152;29;20821;-87
2022/01/28 15:51:13;;;;;;;4.72;2.33;;;;;;;;;;4830268;29;20053;-84
2022/01/28 15:53:41;;;;;;;4.53;2.97;;;;;;;;;;4835640;29;20058;-84
2022/01/28 15:56:10;;;;;;;3.67;2.35;;;;;;;;;;4820227;29;20056;-83
2022/01/28 15:58:39;;;;;;;3.33;3.05;;;;;;;;;;4819352;29;20054;-88
2022/01/28 16:01:07;;;;;;;3.92;2.22;;;;;;;;;;4820046;29;20050;-85
2022/01/28 16:03:35;;;;;;;3.83;1.80;;;;;;;;;;4819435;29;20042;-84
2022/01/28 16:06:03;;;;;;;2.67;2.47;;;;;;;;;;4828871;29;20408;-84
2022/01/28 16:08:32;;;;;;;2.92;2.55;;;;;;;;;;4820870;29;20050;-86
2022/01/28 16:19:02;;;;;;;6.85;2.85;;;;;;;;;;4834408;29;20057;-84
2022/01/28 16:21:30;;;;;;;3.08;2.58;;;;;;;;;;4830970;29;20098;-84
2022/01/28 16:23:59;;;;;;;4.53;3.42;;;;;;;;;;4816579;29;20058;-83
2022/01/28 16:26:27;;;;;;;6.15;2.72;;;;;;;;;;4829761;29;20046;-83
2022/01/28 16:28:57;;;;;;;4.22;2.53;;;;;;;;;;4832675;29;20056;-80
2022/01/28 16:31:27;;;;;;;5.70;3.65;;;;;;;;;;4836522;29;20420;-86
2022/01/28 16:33:58;;;;;;;6.55;3.63;;;;;;;;;;4833189;29;20412;-84
2022/01/28 16:36:28;;;;;;;2.40;2.20;;;;;;;;;;4822012;29;20046;-79
2022/01/28 16:38:56;;;;;;;12.18;4.00;;;;;;;;;;4816172;29;20496;-82
2022/01/28 16:41:25;;;;;;;2.70;2.08;;;;;;;;;;4815967;29;20543;-81
2022/01/28 16:44:09;;;;;;;3.13;2.72;;;;;;;;;;4805338;29;20045;-79
2022/01/28 16:46:37;;;;;;;16.25;2.97;;;;;;;;;;4828092;29;20682;-79
2022/01/28 16:49:06;;;;;;;4.78;3.75;;;;;;;;;;4837255;29;20050;-80
2022/01/28 16:51:34;;;;;;;4.75;2.10;;;;;;;;;;4837566;29;20050;-81
2022/01/28 16:54:02;;;;;;;1.60;1.50;;;;;;;;;;4805874;29;20072;-79
2022/01/28 16:56:30;;;;;;;8.45;2.78;;;;;;;;;;4837259;29;20061;-79
2022/01/28 16:58:58;;;;;;;3.13;2.92;;;;;;;;;;4836784;29;20440;-79
2022/01/28 17:01:26;;;;;;;2.67;2.47;;;;;;;;;;4837594;29;20038;-80
2022/01/28 17:03:54;;;;;;;7.95;5.38;;;;;;;;;;4837224;29;20054;-80
2022/01/28 17:06:24;;;;;;;6.25;2.45;;;;;;;;;;4808628;29;20054;-82
2022/01/28 17:08:56;;;;;;;2.72;2.53;;;;;;;;;;4811959;29;20057;-82
2022/01/28 17:11:36;;;;;;;4.90;3.33;;;;;;;;;;4826911;29;20050;-83
2022/01/28 17:14:04;;;;;;;4.43;4.05;;;;;;;;;;4789260;29;20477;-82
2022/01/28 17:16:33;;;;;;;5.30;2.20;;;;;;;;;;4824583;29;20053;-82
2022/01/28 17:19:00;;;;;;;3.80;3.53;;;;;;;;;;4833310;29;20057;-82
2022/01/28 17:21:29;;;;;;;7.18;2.50;;;;;;;;;;4838153;29;20050;-84
2022/01/28 17:23:57;;;;;;;5.70;2.72;;;;;;;;;;4802020;29;20066;-84
2022/01/28 17:26:25;;;;;;;2.65;2.45;;;;;;;;;;4822682;29;20057;-83
2022/01/28 17:28:53;;;;;;;9.15;3.22;;;;;;;;;;4830013;29;20054;-84
2022/01/28 17:31:21;;;;;;;6.90;2.03;;;;;;;;;;4839077;29;20042;-84
2022/01/28 17:33:49;;;;;;;3.15;2.92;;;;;;;;;;4839456;29;20061;-84
2022/01/28 17:36:17;;;;;;;3.22;2.83;;;;;;;;;;4839065;29;20413;-84
2022/01/28 17:38:45;;;;;;;3.28;3.08;;;;;;;;;;4834247;29;20074;-84
2022/01/28 17:41:14;;;;;;;3.85;3.55;;;;;;;;;;4822720;29;20073;-84
2022/01/28 17:43:42;;;;;;;2.38;2.10;;;;;;;;;;4836065;29;20062;-84
2022/01/28 17:46:17;;;;;;;2.85;2.67;;;;;;;;;;4839896;29;20607;-83
2022/01/28 17:48:46;;;;;;;7.38;3.70;;;;;;;;;;4822768;29;20054;-84
2022/01/28 17:51:14;;;;;;;6.00;2.70;;;;;;;;;;4835257;29;20057;-84
2022/01/28 17:53:43;;;;;;;3.65;2.55;;;;;;;;;;4825536;29;20054;-85
2022/01/28 17:56:11;;;;;;;6.13;3.50;;;;;;;;;;4812438;29;20524;-85
2022/01/28 17:58:51;;;;;;;2.90;2.70;;;;;;;;;;4826978;29;20540;-86
2022/01/28 18:01:21;;;;;;;6.47;3.85;;;;;;;;;;4824589;29;20053;-86
2022/01/28 18:03:50;;;;;;;4.38;2.53;;;;;;;;;;4781823;29;20531;-82
2022/01/28 18:06:18;;;;;;;4.82;2.50;;;;;;;;;;4822269;29;20766;-84
2022/01/28 18:08:46;;;;;;;17.90;3.17;;;;;;;;;;4805453;29;20151;-85
2022/01/28 18:11:14;;;;;;;5.30;3.33;;;;;;;;;;4805603;29;20046;-81
2022/01/28 18:13:43;;;;;;;2.70;2.03;;;;;;;;;;4835365;29;20054;-83
2022/01/28 18:16:13;;;;;;;;;;;;;;;;;;4795249;29;20046;-83
2022/01/28 18:18:42;;;;;;;11.45;3.38;;;;;;;;;;4832376;29;19951;-83
2022/01/28 18:21:11;;;;;;;10.80;3.75;;;;;;;;;;4829093;29;20051;-82
2022/01/28 18:23:39;;;;;;;3.47;2.13;;;;;;;;;;4836340;29;20493;-83